Time;durP1;ratioP1;P1;durP2;ratioP2;P2;SDS_P1;SDS_P2;PMS_P1;PMS_P2;Temp;Humidity;BMP_temperature;BMP_pressure;BME280_temperature;BME280_humidity;BME280_pressure;Samples;Min_cycle;Max_cycle;Signal;HPM_P1;HPM_P2
2024/01/27 00:01:50;;;;;;;21.90;9.97;;;4.40;99.90;;;;;;5056609;28;20191;-81
2024/01/27 00:04:38;;;;;;;20.03;8.63;;;4.40;99.90;;;;;;5058430;28;20274;-81
2024/01/27 00:07:28;;;;;;;11.80;6.80;;;4.40;99.90;;;;;;5043876;28;20332;-81
2024/01/27 00:10:15;;;;;;;15.67;6.40;;;4.50;99.90;;;;;;5057826;28;20197;-81
2024/01/27 00:13:03;;;;;;;9.87;4.73;;;4.50;99.90;;;;;;5042922;28;20308;-81
2024/01/27 00:15:51;;;;;;;9.40;3.90;;;4.50;99.90;;;;;;5044074;28;20264;-81
2024/01/27 00:18:41;;;;;;;9.07;3.57;;;4.50;99.90;;;;;;5043714;28;20702;-81
2024/01/27 00:21:28;;;;;;;6.40;3.00;;;4.60;99.90;;;;;;5059565;28;20573;-81
2024/01/27 00:24:16;;;;;;;6.97;2.70;;;4.60;99.90;;;;;;5043561;28;20289;-81
2024/01/27 00:27:04;;;;;;;9.10;2.40;;;4.60;99.90;;;;;;5057625;28;20215;-81
2024/01/27 00:29:51;;;;;;;4.60;1.90;;;4.50;99.90;;;;;;5057769;28;20191;-81
2024/01/27 00:32:40;;;;;;;6.23;1.93;;;4.60;99.90;;;;;;5057577;28;20225;-81
2024/01/27 00:35:27;;;;;;;3.17;1.70;;;4.60;99.90;;;;;;5056967;28;21002;-81
2024/01/27 00:38:15;;;;;;;5.00;1.87;;;4.50;99.90;;;;;;5042788;28;20194;-80
2024/01/27 00:41:03;;;;;;;5.03;1.60;;;4.50;99.90;;;;;;5041538;28;20202;-81
2024/01/27 00:43:50;;;;;;;7.40;1.60;;;4.40;99.90;;;;;;5054887;28;20353;-81
2024/01/27 00:46:38;;;;;;;5.87;1.73;;;4.40;99.90;;;;;;5053665;28;20202;-81
2024/01/27 00:49:26;;;;;;;6.17;1.50;;;4.40;99.90;;;;;;5054294;28;20303;-81
2024/01/27 00:52:14;;;;;;;11.80;2.07;;;4.30;99.90;;;;;;5053718;28;20226;-81
2024/01/27 00:55:01;;;;;;;11.77;1.90;;;4.40;99.90;;;;;;5054811;28;20214;-81
2024/01/27 00:57:49;;;;;;;6.73;1.80;;;4.40;99.90;;;;;;5028888;28;20211;-81
2024/01/27 01:00:37;;;;;;;8.00;1.77;;;4.30;99.90;;;;;;5040912;28;20203;-81
2024/01/27 01:03:24;;;;;;;8.43;1.80;;;4.30;99.90;;;;;;5039567;28;20198;-81
2024/01/27 01:06:12;;;;;;;7.70;2.07;;;4.30;99.90;;;;;;5054577;28;20647;-81
2024/01/27 01:09:00;;;;;;;7.93;2.30;;;4.30;99.90;;;;;;5053873;28;20191;-81
2024/01/27 01:11:48;;;;;;;7.47;1.83;;;4.30;99.90;;;;;;5045240;28;20225;-81
2024/01/27 01:14:39;;;;;;;5.97;1.40;;;4.30;99.90;;;;;;5053046;28;20191;-81
2024/01/27 01:17:27;;;;;;;6.43;1.70;;;4.40;99.90;;;;;;5053795;28;20214;-81
2024/01/27 01:20:15;;;;;;;8.40;2.00;;;4.30;99.90;;;;;;5054223;28;20690;-81
2024/01/27 01:23:02;;;;;;;9.30;1.73;;;4.20;99.90;;;;;;5052953;28;20241;-81
2024/01/27 01:25:50;;;;;;;8.40;1.67;;;4.30;99.90;;;;;;5054116;28;20192;-81
2024/01/27 01:28:38;;;;;;;7.07;1.60;;;4.30;99.90;;;;;;5052831;28;20237;-81
2024/01/27 01:31:26;;;;;;;10.37;2.10;;;4.10;99.90;;;;;;5054024;28;20191;-81
2024/01/27 01:34:14;;;;;;;9.33;1.50;;;4.20;99.90;;;;;;5053818;28;20194;-81
2024/01/27 01:37:02;;;;;;;7.27;1.80;;;4.30;99.90;;;;;;5053666;28;20237;-81
2024/01/27 01:39:50;;;;;;;9.17;1.60;;;4.20;99.90;;;;;;5052950;28;20206;-81
2024/01/27 01:42:37;;;;;;;6.63;1.60;;;4.20;99.90;;;;;;5053321;28;20312;-81
2024/01/27 01:45:25;;;;;;;9.97;1.80;;;4.10;99.90;;;;;;5053165;28;20191;-81
2024/01/27 01:48:14;;;;;;;6.57;1.80;;;4.10;99.90;;;;;;5053167;28;20229;-80
2024/01/27 01:51:02;;;;;;;6.70;1.90;;;4.10;99.90;;;;;;5052748;28;20201;-81
2024/01/27 01:53:56;;;;;;;7.83;2.23;;;4.00;99.90;;;;;;5052983;28;20216;-81
2024/01/27 01:56:45;;;;;;;9.10;1.70;;;4.10;99.90;;;;;;5025560;28;20227;-81
2024/01/27 01:59:34;;;;;;;7.90;1.80;;;4.00;99.90;;;;;;5052870;28;20209;-81
2024/01/27 02:02:21;;;;;;;8.33;2.20;;;4.00;99.90;;;;;;5052885;28;20280;-81
2024/01/27 02:05:09;;;;;;;12.03;2.10;;;4.00;99.90;;;;;;5038543;28;20222;-81
2024/01/27 02:07:59;;;;;;;10.30;1.90;;;4.00;99.90;;;;;;5052681;28;20298;-81
2024/01/27 02:10:47;;;;;;;10.60;2.07;;;4.00;99.90;;;;;;5052836;28;20342;-80
2024/01/27 02:13:35;;;;;;;11.90;2.23;;;4.00;99.90;;;;;;5053076;28;20306;-81
2024/01/27 02:16:23;;;;;;;8.30;1.80;;;4.00;99.90;;;;;;5052443;28;20230;-81
2024/01/27 02:19:12;;;;;;;11.30;1.87;;;4.00;99.90;;;;;;5052516;28;20195;-80
2024/01/27 02:21:59;;;;;;;18.10;2.03;;;4.00;99.90;;;;;;5052466;28;20666;-81
2024/01/27 02:24:47;;;;;;;11.43;2.23;;;4.00;99.90;;;;;;5045013;28;20202;-81
2024/01/27 02:27:34;;;;;;;11.00;1.80;;;4.10;99.90;;;;;;5052426;28;20337;-81
2024/01/27 02:30:22;;;;;;;10.90;1.90;;;4.10;99.90;;;;;;5052326;28;20195;-81
2024/01/27 02:33:10;;;;;;;7.60;1.77;;;4.10;99.90;;;;;;5051164;28;20570;-81
2024/01/27 02:35:58;;;;;;;10.40;2.00;;;4.10;99.90;;;;;;5052493;28;20198;-80
2024/01/27 02:38:46;;;;;;;11.17;2.30;;;4.10;99.90;;;;;;5052785;28;20304;-80
2024/01/27 02:41:38;;;;;;;12.43;2.87;;;4.10;99.90;;;;;;5052588;28;20258;-80
2024/01/27 02:44:26;;;;;;;14.60;2.37;;;4.10;99.90;;;;;;5051696;28;20195;-80
2024/01/27 02:47:14;;;;;;;11.07;2.13;;;4.10;99.90;;;;;;5052658;28;20203;-80
2024/01/27 02:50:02;;;;;;;13.27;2.30;;;4.10;99.90;;;;;;5051527;28;20272;-79
2024/01/27 02:52:50;;;;;;;11.07;2.00;;;4.10;99.90;;;;;;5044530;28;20218;-80
2024/01/27 02:55:38;;;;;;;9.20;2.13;;;4.10;99.90;;;;;;5039244;28;20676;-80
2024/01/27 02:58:26;;;;;;;9.73;2.30;;;4.10;99.90;;;;;;5051944;28;20268;-80
2024/01/27 03:01:14;;;;;;;9.60;1.80;;;4.10;99.90;;;;;;5051908;28;20274;-81
2024/01/27 03:04:01;;;;;;;12.17;2.20;;;4.10;99.90;;;;;;5050322;28;20206;-80
2024/01/27 03:06:49;;;;;;;12.20;2.60;;;4.10;99.90;;;;;;5052261;28;20198;-81
2024/01/27 03:09:37;;;;;;;13.23;2.40;;;4.10;99.90;;;;;;5051718;28;20195;-80
2024/01/27 03:12:25;;;;;;;10.37;2.40;;;4.00;99.90;;;;;;5051621;28;20227;-81
2024/01/27 03:15:13;;;;;;;10.37;1.93;;;4.10;99.90;;;;;;5052310;28;20640;-80
2024/01/27 03:18:01;;;;;;;11.80;2.83;;;4.10;99.90;;;;;;5052245;28;20202;-81
2024/01/27 03:20:48;;;;;;;15.30;2.70;;;4.00;99.90;;;;;;5052310;28;20203;-81
2024/01/27 03:23:36;;;;;;;13.97;2.90;;;4.10;99.90;;;;;;5052213;28;20186;-81
2024/01/27 03:26:24;;;;;;;12.03;2.70;;;4.00;99.90;;;;;;5052013;28;20221;-81
2024/01/27 03:29:12;;;;;;;10.13;2.30;;;4.00;99.90;;;;;;5052044;28;20198;-81
2024/01/27 03:32:00;;;;;;;10.80;2.33;;;4.10;99.90;;;;;;5051395;28;20710;-81
2024/01/27 03:34:48;;;;;;;16.30;2.50;;;4.10;99.90;;;;;;5052083;28;20197;-81
2024/01/27 03:37:36;;;;;;;19.27;2.67;;;4.10;99.90;;;;;;5052034;28;20198;-81
2024/01/27 03:40:24;;;;;;;13.93;3.03;;;4.10;99.90;;;;;;5051552;28;20227;-81
2024/01/27 03:43:11;;;;;;;13.13;2.53;;;4.10;99.90;;;;;;5051899;28;20666;-81
2024/01/27 03:45:59;;;;;;;11.97;2.90;;;4.00;99.90;;;;;;5050704;28;20667;-81
2024/01/27 03:48:47;;;;;;;8.97;2.10;;;4.10;99.90;;;;;;5051875;28;20209;-81
2024/01/27 03:51:36;;;;;;;13.50;2.30;;;4.10;99.90;;;;;;5051272;28;20202;-80
2024/01/27 03:54:24;;;;;;;10.93;2.40;;;4.10;99.90;;;;;;5051692;28;20641;-80
2024/01/27 03:57:12;;;;;;;13.80;2.33;;;4.20;99.90;;;;;;5051728;28;20254;-80
2024/01/27 03:59:59;;;;;;;14.53;2.57;;;4.20;99.90;;;;;;5051188;28;20191;-80
2024/01/27 04:02:47;;;;;;;13.67;2.43;;;4.10;99.90;;;;;;5050550;28;20217;-80
2024/01/27 04:05:35;;;;;;;9.30;2.40;;;4.20;99.90;;;;;;5051038;28;20233;-80
2024/01/27 04:08:22;;;;;;;14.60;2.60;;;4.10;99.90;;;;;;5051060;28;20285;-80
2024/01/27 04:11:20;;;;;;;11.10;2.23;;;4.10;99.90;;;;;;5037757;28;20273;-80
2024/01/27 04:14:08;;;;;;;9.43;2.30;;;4.10;99.90;;;;;;5053690;28;20261;-80
2024/01/27 04:16:55;;;;;;;13.80;2.97;;;4.00;99.90;;;;;;5040739;28;20202;-80
2024/01/27 04:19:46;;;;;;;13.87;2.60;;;4.10;99.90;;;;;;5041151;28;20199;-81
2024/01/27 04:22:35;;;;;;;14.60;2.37;;;3.90;99.90;;;;;;5055249;28;20187;-81
2024/01/27 04:25:23;;;;;;;17.37;2.80;;;4.00;99.90;;;;;;5054726;28;20282;-80
2024/01/27 04:28:12;;;;;;;10.93;2.37;;;4.00;99.90;;;;;;5055120;28;20222;-80
2024/01/27 04:31:00;;;;;;;14.90;3.07;;;3.90;99.90;;;;;;5041859;28;20194;-80
2024/01/27 04:33:48;;;;;;;16.70;2.73;;;4.00;99.90;;;;;;5055007;28;20570;-80
2024/01/27 04:36:36;;;;;;;10.77;2.53;;;3.90;99.90;;;;;;5054939;28;20703;-80
2024/01/27 04:39:24;;;;;;;12.23;2.70;;;3.90;99.90;;;;;;5039834;28;20720;-80
2024/01/27 04:42:12;;;;;;;13.13;2.90;;;3.90;99.90;;;;;;5039020;28;20214;-80
2024/01/27 04:45:00;;;;;;;17.50;2.83;;;3.90;99.90;;;;;;5054331;28;20205;-80
2024/01/27 04:47:48;;;;;;;12.27;2.40;;;3.90;99.90;;;;;;5046948;28;20285;-80
2024/01/27 04:50:36;;;;;;;15.47;3.03;;;3.90;99.90;;;;;;5054834;28;20712;-80
2024/01/27 04:53:25;;;;;;;8.80;3.10;;;3.90;99.90;;;;;;5054129;28;20309;-80
2024/01/27 04:56:12;;;;;;;12.70;2.70;;;3.90;99.90;;;;;;5054190;28;20664;-80
2024/01/27 04:59:00;;;;;;;12.57;3.13;;;3.90;99.90;;;;;;5040051;28;20192;-80
2024/01/27 05:01:48;;;;;;;13.63;3.60;;;3.90;99.90;;;;;;5039932;28;20766;-80
2024/01/27 05:04:37;;;;;;;17.07;3.23;;;3.90;99.90;;;;;;5055117;28;20240;-80
2024/01/27 05:07:25;;;;;;;13.50;3.03;;;3.90;99.90;;;;;;5054495;28;20388;-80
2024/01/27 05:10:14;;;;;;;10.93;3.00;;;3.90;99.90;;;;;;5053200;28;20288;-80
2024/01/27 05:13:02;;;;;;;13.17;2.87;;;3.90;99.90;;;;;;5054741;28;20302;-80
2024/01/27 05:15:50;;;;;;;14.13;2.93;;;3.90;99.90;;;;;;5054382;28;20195;-80
2024/01/27 05:18:38;;;;;;;13.33;2.47;;;3.90;99.90;;;;;;5054161;28;20195;-80
2024/01/27 05:21:26;;;;;;;15.00;2.97;;;3.80;99.90;;;;;;5053627;28;20574;-82
2024/01/27 05:24:13;;;;;;;12.47;2.83;;;3.90;99.90;;;;;;5053690;28;20196;-80
2024/01/27 05:27:01;;;;;;;12.50;2.83;;;3.80;99.90;;;;;;5054081;28;20693;-81
2024/01/27 05:29:49;;;;;;;15.83;3.47;;;3.90;99.90;;;;;;5038503;28;20569;-80
2024/01/27 05:32:37;;;;;;;9.37;2.60;;;3.90;99.90;;;;;;5039371;28;20342;-80
2024/01/27 05:35:25;;;;;;;8.90;2.60;;;3.80;99.90;;;;;;5052775;28;20259;-80
2024/01/27 05:38:13;;;;;;;13.70;2.57;;;3.80;99.90;;;;;;5054003;28;20200;-80
2024/01/27 05:41:01;;;;;;;12.13;3.37;;;3.80;99.90;;;;;;5039729;28;20195;-80
2024/01/27 05:43:49;;;;;;;20.33;3.43;;;3.80;99.90;;;;;;5026181;28;20341;-80
2024/01/27 05:46:37;;;;;;;12.67;2.60;;;3.70;99.90;;;;;;5052801;28;20193;-80
2024/01/27 05:49:24;;;;;;;12.50;3.00;;;3.70;99.90;;;;;;5053156;28;20677;-80
2024/01/27 05:52:13;;;;;;;16.97;2.87;;;3.60;99.90;;;;;;5053058;28;20197;-81
2024/01/27 05:55:12;;;;;;;12.87;2.70;;;3.60;99.90;;;;;;5054078;28;20276;-80
2024/01/27 05:58:00;;;;;;;16.67;2.73;;;3.50;99.90;;;;;;5054016;28;20229;-80
2024/01/27 06:00:48;;;;;;;17.83;3.17;;;3.60;99.90;;;;;;5053209;28;20202;-80
2024/01/27 06:03:35;;;;;;;15.77;3.00;;;3.60;99.90;;;;;;5054304;28;20554;-80
2024/01/27 06:06:23;;;;;;;15.50;2.60;;;3.60;99.90;;;;;;5053376;28;20612;-81
2024/01/27 06:09:11;;;;;;;16.37;2.80;;;3.60;99.90;;;;;;5053320;28;20195;-81
2024/01/27 06:12:00;;;;;;;13.57;2.60;;;3.70;99.90;;;;;;5052042;28;20313;-81
2024/01/27 06:14:48;;;;;;;14.60;2.43;;;3.70;99.90;;;;;;5024011;28;20223;-80
2024/01/27 06:17:36;;;;;;;10.63;2.60;;;3.80;99.90;;;;;;5053172;28;20307;-81
2024/01/27 06:20:24;;;;;;;11.47;2.70;;;3.80;99.90;;;;;;5053622;28;20272;-80
2024/01/27 06:23:12;;;;;;;14.30;2.67;;;3.80;99.90;;;;;;5053288;28;20205;-80
2024/01/27 06:25:59;;;;;;;9.10;2.13;;;3.80;99.90;;;;;;5037689;28;20241;-80
2024/01/27 06:28:47;;;;;;;15.63;3.20;;;3.80;99.90;;;;;;5052198;28;20324;-80
2024/01/27 06:31:35;;;;;;;12.93;2.30;;;3.80;99.90;;;;;;5052385;28;20241;-80
2024/01/27 06:34:23;;;;;;;14.20;2.60;;;3.80;99.90;;;;;;5038547;28;20306;-80
2024/01/27 06:37:10;;;;;;;12.27;2.33;;;3.80;99.90;;;;;;5051805;28;20335;-81
2024/01/27 06:39:59;;;;;;;11.13;2.77;;;3.70;99.90;;;;;;5039430;28;20196;-81
2024/01/27 06:42:46;;;;;;;14.30;3.00;;;3.70;99.90;;;;;;5052259;28;20219;-81
2024/01/27 06:45:34;;;;;;;18.40;2.43;;;3.50;99.90;;;;;;5051406;28;20198;-81
2024/01/27 06:48:25;;;;;;;13.73;2.77;;;3.50;99.90;;;;;;5051973;28;20665;-81
2024/01/27 06:51:13;;;;;;;14.03;3.50;;;3.40;99.90;;;;;;5052514;28;20190;-81
2024/01/27 06:54:00;;;;;;;10.80;2.97;;;3.30;99.90;;;;;;5051166;28;20215;-81
2024/01/27 06:56:48;;;;;;;14.17;2.40;;;3.30;99.90;;;;;;5052481;28;20631;-81
2024/01/27 06:59:36;;;;;;;11.10;2.80;;;3.20;99.90;;;;;;5053096;28;20191;-81
2024/01/27 07:02:26;;;;;;;10.57;2.60;;;3.20;99.90;;;;;;5051752;28;20204;-82
2024/01/27 07:05:14;;;;;;;17.30;3.10;;;3.20;99.90;;;;;;5052061;28;20772;-81
2024/01/27 07:08:03;;;;;;;14.30;3.10;;;3.10;99.90;;;;;;5051727;28;20202;-82
2024/01/27 07:10:50;;;;;;;15.30;3.50;;;3.00;99.90;;;;;;5052878;28;20194;-81
2024/01/27 07:13:40;;;;;;;12.83;3.97;;;3.00;99.90;;;;;;5052115;28;20311;-81
2024/01/27 07:16:28;;;;;;;17.23;3.60;;;2.90;99.90;;;;;;5051512;28;20612;-81
2024/01/27 07:19:16;;;;;;;13.57;2.80;;;2.90;99.90;;;;;;5052739;28;20667;-81
2024/01/27 07:22:04;;;;;;;17.10;3.47;;;2.90;99.90;;;;;;5052726;28;20199;-81
2024/01/27 07:24:51;;;;;;;18.43;3.40;;;2.80;99.90;;;;;;5052080;28;20213;-82
2024/01/27 07:27:39;;;;;;;12.27;3.20;;;2.90;99.90;;;;;;5037971;28;20228;-81
2024/01/27 07:30:27;;;;;;;16.23;3.87;;;2.90;99.90;;;;;;5051968;28;20195;-82
2024/01/27 07:33:15;;;;;;;15.27;3.43;;;2.90;99.90;;;;;;5036680;28;20205;-82
2024/01/27 07:36:04;;;;;;;13.60;3.27;;;2.90;99.90;;;;;;5051968;28;20198;-82
2024/01/27 07:38:51;;;;;;;17.77;3.83;;;2.80;99.90;;;;;;5051855;28;20216;-82
2024/01/27 07:41:39;;;;;;;14.60;3.53;;;2.90;99.90;;;;;;5051353;28;20288;-81
2024/01/27 07:44:27;;;;;;;15.63;3.73;;;2.80;99.90;;;;;;5050262;28;20658;-82
2024/01/27 07:47:15;;;;;;;19.37;3.37;;;2.90;99.90;;;;;;5036691;28;20508;-82
2024/01/27 07:50:04;;;;;;;14.00;3.80;;;2.80;99.90;;;;;;5041828;28;20721;-82
2024/01/27 07:52:52;;;;;;;14.93;3.80;;;2.70;99.90;;;;;;5055926;28;20197;-81
2024/01/27 07:55:39;;;;;;;14.67;4.00;;;2.60;99.90;;;;;;5055813;28;20780;-81
2024/01/27 07:58:27;;;;;;;12.60;3.87;;;2.70;99.90;;;;;;5041605;28;20209;-81
2024/01/27 08:01:16;;;;;;;12.40;3.43;;;2.70;99.90;;;;;;5041811;28;20289;-81
2024/01/27 08:04:03;;;;;;;17.00;3.97;;;2.70;99.90;;;;;;5041322;28;20245;-81
2024/01/27 08:06:53;;;;;;;12.13;3.60;;;2.60;99.90;;;;;;5056248;28;20657;-81
2024/01/27 08:09:41;;;;;;;10.03;3.63;;;2.60;99.90;;;;;;5053967;28;20206;-81
2024/01/27 08:12:29;;;;;;;12.60;4.13;;;2.60;99.90;;;;;;5042062;28;20690;-81
2024/01/27 08:15:16;;;;;;;16.23;3.83;;;2.70;99.90;;;;;;5054303;28;20681;-81
2024/01/27 08:18:04;;;;;;;13.57;4.30;;;2.60;99.90;;;;;;5056056;28;20278;-82
2024/01/27 08:20:52;;;;;;;13.17;3.77;;;2.60;99.90;;;;;;5054424;28;20187;-81
2024/01/27 08:23:41;;;;;;;11.30;4.00;;;2.60;99.90;;;;;;5042287;28;20212;-81
2024/01/27 08:26:28;;;;;;;19.87;4.20;;;2.70;99.90;;;;;;5041441;28;20260;-81
2024/01/27 08:29:15;;;;;;;13.83;4.20;;;2.70;99.90;;;;;;5040598;28;20198;-82
2024/01/27 08:32:03;;;;;;;13.73;4.30;;;2.70;99.90;;;;;;5054579;28;20662;-82
2024/01/27 08:34:53;;;;;;;12.40;3.97;;;2.70;99.90;;;;;;5055149;28;20512;-81
2024/01/27 08:37:41;;;;;;;13.90;4.20;;;2.70;99.90;;;;;;5055107;28;20386;-82
2024/01/27 08:40:28;;;;;;;10.30;4.10;;;2.70;99.90;;;;;;5041605;28;20228;-81
2024/01/27 08:43:16;;;;;;;11.03;3.67;;;2.80;99.90;;;;;;5055099;28;20699;-81
2024/01/27 08:46:03;;;;;;;14.93;4.10;;;2.70;99.90;;;;;;5054546;28;20231;-81
2024/01/27 08:48:54;;;;;;;13.90;4.40;;;2.80;99.90;;;;;;5053348;28;20195;-80
2024/01/27 08:51:42;;;;;;;14.07;4.20;;;2.60;99.90;;;;;;5039560;28;20193;-81
2024/01/27 08:54:30;;;;;;;12.37;4.07;;;2.60;99.90;;;;;;5054734;28;20230;-82
2024/01/27 08:57:18;;;;;;;15.63;4.90;;;2.70;99.90;;;;;;5039369;28;20214;-81
2024/01/27 09:00:06;;;;;;;15.97;4.50;;;2.70;99.90;;;;;;5052463;28;20209;-81
2024/01/27 09:02:54;;;;;;;14.63;4.37;;;2.70;99.90;;;;;;5053536;28;20204;-81
2024/01/27 09:05:44;;;;;;;13.60;4.70;;;2.70;99.90;;;;;;5053329;28;20224;-81
2024/01/27 09:08:32;;;;;;;11.27;4.37;;;2.80;99.90;;;;;;5054698;28;20198;-81
2024/01/27 09:11:21;;;;;;;8.73;4.50;;;2.60;99.90;;;;;;5040292;28;20256;-81
2024/01/27 09:14:09;;;;;;;12.80;4.20;;;2.80;99.90;;;;;;5052908;28;20341;-82
2024/01/27 09:17:00;;;;;;;13.97;5.03;;;2.80;99.90;;;;;;5053137;28;20654;-82
2024/01/27 09:19:48;;;;;;;13.67;4.90;;;2.70;99.90;;;;;;5039140;28;20190;-81
2024/01/27 09:22:36;;;;;;;11.80;4.50;;;2.70;99.90;;;;;;5040212;28;20200;-81
2024/01/27 09:25:24;;;;;;;13.70;5.20;;;2.80;99.90;;;;;;5053568;28;20195;-81
2024/01/27 09:28:12;;;;;;;18.70;5.53;;;2.80;99.90;;;;;;5038789;28;20222;-81
2024/01/27 09:31:00;;;;;;;15.93;5.30;;;2.80;99.90;;;;;;5054108;28;20270;-81
2024/01/27 09:33:51;;;;;;;22.10;6.33;;;2.80;99.90;;;;;;5056891;28;20198;-81
2024/01/27 09:36:38;;;;;;;15.80;6.03;;;2.70;99.90;;;;;;5052950;28;20292;-81
2024/01/27 09:39:26;;;;;;;15.23;5.67;;;2.90;99.90;;;;;;5052759;28;20278;-81
2024/01/27 09:42:15;;;;;;;14.77;6.20;;;2.90;99.90;;;;;;5052908;28;20254;-81
2024/01/27 09:45:03;;;;;;;15.53;5.57;;;2.90;99.90;;;;;;5038943;28;20201;-81
2024/01/27 09:47:52;;;;;;;17.53;6.23;;;3.00;99.90;;;;;;5039026;28;20221;-81
2024/01/27 09:50:41;;;;;;;13.57;5.57;;;3.00;99.90;;;;;;5039664;28;20233;-81
2024/01/27 09:53:29;;;;;;;13.23;5.20;;;3.00;99.90;;;;;;5025677;28;20195;-82
2024/01/27 09:56:18;;;;;;;14.57;5.40;;;3.00;99.90;;;;;;5053484;28;20292;-82
2024/01/27 09:59:08;;;;;;;18.33;6.00;;;3.10;99.90;;;;;;5038311;28;20190;-83
2024/01/27 10:01:57;;;;;;;11.40;5.17;;;3.20;99.90;;;;;;5052947;28;20226;-82
2024/01/27 10:04:50;;;;;;;13.03;4.73;;;3.20;99.90;;;;;;5052549;28;20249;-82
2024/01/27 10:07:38;;;;;;;11.50;4.80;;;3.10;99.90;;;;;;5052766;28;20191;-82
2024/01/27 10:10:25;;;;;;;14.07;4.83;;;3.10;99.90;;;;;;5052489;28;20278;-82
2024/01/27 10:13:17;;;;;;;10.23;4.97;;;3.10;99.90;;;;;;5052594;28;20216;-82
2024/01/27 10:16:08;;;;;;;10.43;4.37;;;3.10;99.90;;;;;;5038461;28;20234;-82
2024/01/27 10:19:01;;;;;;;13.37;4.47;;;3.10;99.90;;;;;;5052777;28;20489;-82
2024/01/27 10:22:00;;;;;;;10.10;4.43;;;3.10;99.90;;;;;;5044086;28;20202;-82
2024/01/27 10:24:47;;;;;;;9.10;4.30;;;3.10;99.90;;;;;;5043797;28;20252;-82
2024/01/27 10:27:35;;;;;;;9.03;4.10;;;3.00;99.90;;;;;;5037780;28;20741;-82
2024/01/27 10:30:23;;;;;;;9.37;4.47;;;3.10;99.90;;;;;;5052332;28;20231;-82
2024/01/27 10:33:14;;;;;;;8.87;4.43;;;3.20;99.90;;;;;;5052878;28;20674;-81
2024/01/27 10:36:02;;;;;;;9.17;4.13;;;3.20;99.90;;;;;;5052327;28;20298;-81
2024/01/27 10:38:49;;;;;;;9.83;4.33;;;3.20;99.90;;;;;;5052791;28;20210;-82
2024/01/27 10:41:39;;;;;;;9.10;4.20;;;3.20;99.90;;;;;;5039327;28;20214;-82
2024/01/27 10:44:29;;;;;;;6.13;3.63;;;3.10;99.90;;;;;;5039178;28;20190;-82
2024/01/27 10:47:20;;;;;;;5.90;3.57;;;3.20;99.90;;;;;;5038463;28;20198;-82
2024/01/27 10:50:09;;;;;;;8.33;3.90;;;3.10;99.90;;;;;;5051919;28;20268;-82
2024/01/27 10:53:03;;;;;;;8.33;4.10;;;3.10;99.90;;;;;;5052471;28;20195;-83
2024/01/27 10:55:57;;;;;;;7.67;3.40;;;3.20;99.90;;;;;;5051188;28;20683;-82
2024/01/27 10:58:47;;;;;;;6.47;4.20;;;3.20;99.90;;;;;;5052955;28;20697;-82
2024/01/27 11:01:37;;;;;;;7.17;3.93;;;3.20;99.90;;;;;;5051280;28;20202;-82
2024/01/27 11:04:28;;;;;;;8.20;3.70;;;3.10;99.90;;;;;;5037461;28;20234;-82
2024/01/27 11:07:18;;;;;;;8.20;4.30;;;3.30;99.90;;;;;;5036917;28;20658;-82
2024/01/27 11:10:07;;;;;;;7.30;3.40;;;3.20;99.90;;;;;;5037533;28;20199;-82
2024/01/27 11:12:55;;;;;;;8.87;3.77;;;3.20;99.90;;;;;;5037473;28;20682;-82
2024/01/27 11:15:55;;;;;;;5.60;3.40;;;3.20;99.90;;;;;;5052261;28;20240;-81
2024/01/27 11:18:43;;;;;;;4.63;3.17;;;3.40;99.90;;;;;;5053197;28;20220;-81
2024/01/27 11:21:30;;;;;;;4.43;3.13;;;3.30;99.90;;;;;;5024972;28;20660;-80
2024/01/27 11:24:18;;;;;;;5.70;2.67;;;3.30;99.90;;;;;;5051629;28;20638;-79
2024/01/27 11:27:06;;;;;;;4.80;2.83;;;3.10;99.90;;;;;;5051738;28;20214;-81
2024/01/27 11:29:54;;;;;;;5.57;2.70;;;3.10;99.90;;;;;;5037401;28;20187;-81
2024/01/27 11:32:41;;;;;;;5.37;2.60;;;3.00;99.90;;;;;;5052093;28;20198;-82
2024/01/27 11:35:29;;;;;;;5.63;3.43;;;3.10;99.90;;;;;;5051305;28;20306;-78
2024/01/27 11:38:16;;;;;;;4.00;2.80;;;3.00;99.90;;;;;;5036769;28;20195;-80
2024/01/27 11:41:04;;;;;;;3.50;2.73;;;3.10;99.90;;;;;;5051975;28;20329;-78
2024/01/27 11:43:53;;;;;;;3.67;2.77;;;3.10;99.90;;;;;;5051411;28;20203;-79
2024/01/27 11:46:41;;;;;;;5.23;2.97;;;3.10;99.90;;;;;;5051911;28;20210;-79
2024/01/27 11:49:28;;;;;;;5.43;3.07;;;3.10;99.90;;;;;;5023906;28;20721;-78
2024/01/27 11:52:17;;;;;;;4.60;3.10;;;3.20;99.90;;;;;;5051262;28;20186;-79
2024/01/27 11:55:05;;;;;;;4.30;3.00;;;3.10;99.90;;;;;;5037081;28;20623;-80
2024/01/27 11:57:52;;;;;;;5.03;3.23;;;3.10;99.90;;;;;;5051200;28;20229;-80
2024/01/27 12:00:40;;;;;;;3.80;3.10;;;3.20;99.90;;;;;;5051786;28;20195;-80
2024/01/27 12:03:29;;;;;;;4.67;3.00;;;3.20;99.90;;;;;;5037769;28;20602;-78
2024/01/27 12:06:17;;;;;;;4.03;3.13;;;3.20;99.90;;;;;;5050342;28;20239;-79
2024/01/27 12:09:11;;;;;;;5.33;3.10;;;3.20;99.90;;;;;;5038739;28;20195;-80
2024/01/27 12:11:59;;;;;;;4.53;3.10;;;3.20;99.90;;;;;;5051017;28;20219;-79
2024/01/27 12:14:48;;;;;;;4.43;2.90;;;3.20;99.90;;;;;;5050995;28;20223;-79
2024/01/27 12:17:36;;;;;;;4.60;3.17;;;3.20;99.90;;;;;;5036854;28;20187;-79
2024/01/27 12:20:25;;;;;;;3.67;2.97;;;3.20;99.90;;;;;;5050500;28;20596;-78
2024/01/27 12:23:13;;;;;;;3.97;2.87;;;3.20;99.90;;;;;;5036887;28;20197;-79
2024/01/27 12:26:00;;;;;;;3.87;3.10;;;3.20;99.90;;;;;;5050777;28;20200;-79
2024/01/27 12:28:48;;;;;;;3.97;3.13;;;3.20;99.90;;;;;;5036903;28;20657;-79
2024/01/27 12:31:36;;;;;;;4.87;3.23;;;3.20;99.90;;;;;;5037233;28;20569;-79
2024/01/27 12:34:24;;;;;;;5.87;3.53;;;3.10;99.90;;;;;;5052296;28;20218;-77
2024/01/27 12:37:15;;;;;;;5.40;3.60;;;3.20;99.90;;;;;;5054360;28;20201;-78
2024/01/27 12:40:16;;;;;;;5.47;3.77;;;3.20;99.90;;;;;;5039330;28;20201;-78
2024/01/27 12:43:09;;;;;;;5.37;3.70;;;3.00;99.90;;;;;;5054836;28;20230;-78
2024/01/27 12:45:56;;;;;;;6.23;3.53;;;3.10;99.90;;;;;;5040085;28;20206;-79
2024/01/27 12:48:45;;;;;;;6.27;3.70;;;3.10;99.90;;;;;;5054249;28;20202;-79
2024/01/27 12:51:33;;;;;;;5.90;3.80;;;3.10;99.90;;;;;;5054307;28;20278;-79
2024/01/27 12:54:21;;;;;;;5.93;3.93;;;3.10;99.90;;;;;;5055020;28;20210;-78
2024/01/27 12:57:09;;;;;;;5.73;4.23;;;3.10;99.90;;;;;;5040990;28;20288;-78
2024/01/27 13:00:03;;;;;;;6.60;4.17;;;3.10;99.90;;;;;;5055182;28;20187;-79
2024/01/27 13:02:51;;;;;;;5.40;3.73;;;3.10;99.90;;;;;;5039935;28;20820;-78
2024/01/27 13:05:39;;;;;;;6.47;4.00;;;3.20;99.90;;;;;;5040579;28;20470;-79
2024/01/27 13:08:26;;;;;;;5.20;3.80;;;3.30;99.90;;;;;;5034396;28;20201;-79
2024/01/27 13:11:14;;;;;;;5.43;3.70;;;3.30;99.90;;;;;;5033856;28;20237;-78
2024/01/27 13:14:01;;;;;;;6.43;3.77;;;3.40;99.90;;;;;;5033858;28;20206;-78
2024/01/27 13:16:49;;;;;;;4.93;3.80;;;3.40;99.90;;;;;;5033810;28;20364;-78
2024/01/27 13:19:36;;;;;;;4.50;3.73;;;3.40;99.90;;;;;;5033807;28;20578;-79
2024/01/27 13:22:24;;;;;;;5.63;3.70;;;3.50;99.90;;;;;;5021483;28;20242;-79
2024/01/27 13:25:12;;;;;;;5.10;3.80;;;3.40;99.90;;;;;;5018951;28;20191;-79
2024/01/27 13:27:59;;;;;;;5.57;3.57;;;3.40;99.90;;;;;;5034467;28;20629;-79
2024/01/27 13:30:48;;;;;;;5.63;3.73;;;3.40;99.90;;;;;;5034126;28;20194;-78
2024/01/27 13:33:36;;;;;;;4.80;3.20;;;3.40;99.90;;;;;;5019417;28;20211;-79
2024/01/27 13:36:25;;;;;;;5.60;3.70;;;3.40;99.90;;;;;;5018759;28;20220;-79
2024/01/27 13:39:13;;;;;;;4.43;3.10;;;3.50;99.90;;;;;;5019755;28;20195;-79
2024/01/27 13:42:01;;;;;;;4.90;3.43;;;3.40;99.90;;;;;;5019194;28;20219;-80
2024/01/27 13:44:48;;;;;;;4.50;3.57;;;3.50;99.90;;;;;;5033736;28;20205;-80
2024/01/27 13:47:36;;;;;;;5.57;3.63;;;3.50;99.90;;;;;;5034075;28;20246;-80
2024/01/27 13:50:25;;;;;;;4.60;3.33;;;3.50;99.90;;;;;;5019209;28;20203;-80
2024/01/27 13:53:13;;;;;;;4.63;3.57;;;3.60;99.90;;;;;;5018339;28;20202;-80
2024/01/27 13:56:00;;;;;;;4.83;3.10;;;3.60;99.90;;;;;;5032383;28;20310;-79
2024/01/27 13:58:47;;;;;;;6.70;3.63;;;3.70;99.90;;;;;;5033828;28;20318;-79
2024/01/27 14:01:35;;;;;;;5.20;3.27;;;3.60;99.90;;;;;;5018293;28;20192;-79
2024/01/27 14:04:24;;;;;;;3.70;3.30;;;3.50;99.90;;;;;;5033953;28;20242;-81
2024/01/27 14:07:12;;;;;;;3.77;2.97;;;3.50;99.90;;;;;;5032780;28;20645;-80
2024/01/27 14:10:00;;;;;;;4.63;3.37;;;3.50;99.90;;;;;;5032338;28;20204;-80
2024/01/27 14:12:48;;;;;;;4.47;3.30;;;3.50;99.90;;;;;;5032519;28;20234;-79
2024/01/27 14:15:36;;;;;;;5.60;3.23;;;3.50;99.90;;;;;;5032650;28;20210;-80
2024/01/27 14:18:24;;;;;;;5.33;3.17;;;3.50;99.90;;;;;;5034309;28;20196;-81
2024/01/27 14:21:12;;;;;;;3.90;3.00;;;3.50;99.90;;;;;;5017448;28;20676;-80
2024/01/27 14:24:04;;;;;;;3.63;3.10;;;3.40;99.90;;;;;;5032567;28;20226;-80
2024/01/27 14:26:52;;;;;;;3.73;2.80;;;3.50;99.90;;;;;;5033052;28;20414;-81
2024/01/27 14:29:40;;;;;;;3.60;2.80;;;3.40;99.90;;;;;;5033175;28;20200;-80
2024/01/27 14:32:27;;;;;;;3.70;2.50;;;3.40;99.90;;;;;;5032547;28;20624;-80
2024/01/27 14:35:15;;;;;;;2.83;2.53;;;3.40;99.90;;;;;;5032784;28;20211;-80
2024/01/27 14:38:04;;;;;;;3.43;2.50;;;3.40;99.90;;;;;;5032204;28;20196;-81
2024/01/27 14:40:52;;;;;;;4.30;2.60;;;3.40;99.90;;;;;;5032729;28;20194;-82